Time;durP1;ratioP1;P1;durP2;ratioP2;P2;SDS_P1;SDS_P2;PMS_P1;PMS_P2;Temp;Humidity;BMP_temperature;BMP_pressure;BME280_temperature;BME280_humidity;BME280_pressure;Samples;Min_cycle;Max_cycle;Signal;HPM_P1;HPM_P2
2023/09/26 00:02:15;;;;;;;0.10;0.10;;;;;;;12.36;100.00;99743.81;5137246;27;20185;-57
2023/09/26 00:05:03;;;;;;;0.10;0.10;;;;;;;12.40;100.00;99738.22;5137318;27;20194;-57
2023/09/26 00:07:51;;;;;;;0.10;0.10;;;;;;;12.53;100.00;99747.13;5137061;27;20193;-56
2023/09/26 00:10:38;;;;;;;0.10;0.10;;;;;;;12.35;100.00;99758.03;5135760;27;20197;-56
2023/09/26 00:13:25;;;;;;;0.10;0.10;;;;;;;12.14;100.00;99758.41;5136972;27;20197;-57
2023/09/26 00:16:12;;;;;;;0.10;0.10;;;;;;;11.75;100.00;99757.16;5136818;27;20315;-57
2023/09/26 00:19:00;;;;;;;0.20;0.20;;;;;;;11.78;100.00;99757.94;5137043;27;20197;-56
2023/09/26 00:21:47;;;;;;;0.10;0.10;;;;;;;12.04;100.00;99760.75;5136972;27;20189;-56
2023/09/26 00:24:34;;;;;;;0.10;0.10;;;;;;;12.02;100.00;99765.31;5135041;27;20240;-56
2023/09/26 00:27:21;;;;;;;0.10;0.10;;;;;;;11.88;100.00;99754.69;5136755;27;20224;-57
2023/09/26 00:30:09;;;;;;;0.10;0.10;;;;;;;11.84;100.00;99762.91;5136959;27;20537;-56
2023/09/26 00:32:56;;;;;;;0.10;0.10;;;;;;;11.99;100.00;99757.53;5136497;27;20197;-56
2023/09/26 00:35:44;;;;;;;0.10;0.10;;;;;;;11.92;100.00;99750.88;5136588;27;20255;-57
2023/09/26 00:38:32;;;;;;;0.10;0.10;;;;;;;11.89;100.00;99750.22;5135661;27;20235;-57
2023/09/26 00:41:19;;;;;;;0.10;0.10;;;;;;;11.70;100.00;99751.28;5120485;27;20242;-56
2023/09/26 00:44:06;;;;;;;0.10;0.10;;;;;;;11.80;100.00;99756.94;5135926;27;20193;-57
2023/09/26 00:46:53;;;;;;;0.10;0.10;;;;;;;11.68;100.00;99752.31;5136392;27;20186;-56
2023/09/26 00:49:40;;;;;;;0.10;0.10;;;;;;;11.93;100.00;99741.97;5136137;27;20196;-57
2023/09/26 00:52:30;;;;;;;0.10;0.10;;;;;;;11.78;100.00;99742.88;5136394;27;20300;-56
2023/09/26 00:55:20;;;;;;;0.10;0.10;;;;;;;11.66;100.00;99744.44;5134948;27;20197;-56
2023/09/26 00:58:10;;;;;;;0.10;0.10;;;;;;;11.64;100.00;99753.44;5136234;27;20192;-56
2023/09/26 01:00:58;;;;;;;0.10;0.10;;;;;;;11.62;100.00;99750.03;5120334;27;20760;-57
2023/09/26 01:03:46;;;;;;;0.10;0.10;;;;;;;11.42;100.00;99751.19;5136115;27;20189;-56
2023/09/26 01:06:34;;;;;;;0.10;0.10;;;;;;;11.39;100.00;99738.97;5136046;27;20190;-56
2023/09/26 01:09:23;;;;;;;0.10;0.10;;;;;;;11.45;100.00;99751.00;5134614;27;20243;-56
2023/09/26 01:12:11;;;;;;;0.10;0.10;;;;;;;11.46;100.00;99755.34;5135865;27;20197;-56
2023/09/26 01:14:57;;;;;;;0.10;0.10;;;;;;;11.69;100.00;99752.22;5136005;27;20190;-56
2023/09/26 01:17:44;;;;;;;0.10;0.10;;;;;;;11.62;100.00;99750.88;5135943;27;20239;-57
2023/09/26 01:20:32;;;;;;;0.10;0.10;;;;;;;11.76;100.00;99750.91;5135630;27;20217;-56
2023/09/26 01:23:23;;;;;;;0.10;0.10;;;;;;;11.76;100.00;99742.09;5120033;27;20248;-56
2023/09/26 01:26:11;;;;;;;0.10;0.10;;;;;;;12.30;100.00;99735.28;5135702;27;20194;-56
2023/09/26 01:28:57;;;;;;;0.10;0.10;;;;;;;12.01;100.00;99731.75;5120147;27;20193;-57
2023/09/26 01:31:44;;;;;;;0.10;0.10;;;;;;;11.86;100.00;99727.34;5135539;27;20255;-57
2023/09/26 01:34:31;;;;;;;0.10;0.10;;;;;;;11.90;100.00;99730.69;5135443;27;20193;-56
2023/09/26 01:37:20;;;;;;;0.10;0.10;;;;;;;11.83;100.00;99729.34;5135403;27;20189;-56
2023/09/26 01:40:11;;;;;;;0.10;0.10;;;;;;;11.65;100.00;99720.63;5118351;27;20280;-56
2023/09/26 01:43:00;;;;;;;0.10;0.10;;;;;;;11.75;100.00;99721.81;5135391;27;20205;-56
2023/09/26 01:45:47;;;;;;;0.10;0.10;;;;;;;11.91;100.00;99719.97;5135244;27;20193;-56
2023/09/26 01:48:34;;;;;;;0.10;0.10;;;;;;;11.75;100.00;99713.84;5135124;27;20189;-57
2023/09/26 01:51:21;;;;;;;0.10;0.10;;;;;;;11.87;100.00;99714.94;5135142;27;20189;-57
2023/09/26 01:54:08;;;;;;;0.10;0.10;;;;;;;11.68;100.00;99716.03;5133659;27;20489;-56
2023/09/26 01:56:55;;;;;;;0.10;0.10;;;;;;;11.82;100.00;99709.91;5134562;27;20193;-56
2023/09/26 01:59:44;;;;;;;0.10;0.10;;;;;;;11.58;100.00;99712.22;5119451;27;20196;-56
2023/09/26 02:02:31;;;;;;;0.10;0.10;;;;;;;11.61;100.00;99719.97;5134711;27;20220;-56
2023/09/26 02:05:19;;;;;;;0.10;0.10;;;;;;;11.46;100.00;99713.75;5134933;27;20193;-57
2023/09/26 02:08:07;;;;;;;0.10;0.10;;;;;;;11.42;100.00;99714.06;5119194;27;20244;-57
2023/09/26 02:10:54;;;;;;;0.10;0.10;;;;;;;11.17;100.00;99711.94;5118696;27;20297;-57
2023/09/26 02:13:41;;;;;;;0.10;0.10;;;;;;;11.02;100.00;99718.16;5134674;27;20205;-57
2023/09/26 02:16:29;;;;;;;0.10;0.10;;;;;;;11.03;100.00;99725.16;5118941;27;20243;-56
2023/09/26 02:19:16;;;;;;;0.10;0.10;;;;;;;11.26;100.00;99716.72;5134357;27;20687;-57
2023/09/26 02:22:04;;;;;;;0.10;0.10;;;;;;;11.03;100.00;99717.19;5118788;27;20217;-57
2023/09/26 02:24:52;;;;;;;0.10;0.10;;;;;;;11.17;100.00;99710.16;5117009;27;20222;-57
2023/09/26 02:27:39;;;;;;;0.10;0.10;;;;;;;11.17;100.00;99709.31;5134320;27;20197;-57
2023/09/26 02:30:28;;;;;;;0.10;0.10;;;;;;;11.19;100.00;99699.44;5134302;27;20197;-57
2023/09/26 02:33:16;;;;;;;0.10;0.10;;;;;;;11.37;100.00;99695.72;5134474;27;20202;-57
2023/09/26 02:36:04;;;;;;;0.10;0.10;;;;;;;11.10;100.00;99702.66;5134124;27;20194;-56
2023/09/26 02:38:51;;;;;;;0.10;0.10;;;;;;;10.86;100.00;99697.81;5117368;27;20299;-56
2023/09/26 02:41:38;;;;;;;0.10;0.10;;;;;;;11.17;100.00;99696.91;5133913;27;20217;-56
2023/09/26 02:44:25;;;;;;;0.10;0.10;;;;;;;11.49;100.00;99695.97;5118506;27;20282;-56
2023/09/26 02:47:12;;;;;;;0.10;0.10;;;;;;;11.60;100.00;99696.19;5134115;27;20230;-57
2023/09/26 02:50:00;;;;;;;0.10;0.10;;;;;;;11.22;100.00;99688.69;5134147;27;20219;-57
2023/09/26 02:52:48;;;;;;;0.10;0.10;;;;;;;11.21;100.00;99694.09;5133896;27;20219;-57
2023/09/26 02:55:40;;;;;;;0.10;0.10;;;;;;;11.09;100.00;99698.28;5132706;27;20196;-57
2023/09/26 02:58:27;;;;;;;0.10;0.10;;;;;;;11.02;100.00;99699.59;5134106;27;20272;-57
2023/09/26 03:01:16;;;;;;;0.10;0.10;;;;;;;10.89;100.00;99697.63;5118278;27;20566;-57
2023/09/26 03:04:03;;;;;;;0.10;0.10;;;;;;;10.73;100.00;99693.28;5118628;27;20287;-57
2023/09/26 03:06:52;;;;;;;0.10;0.10;;;;;;;10.76;100.00;99685.16;5133601;27;20247;-57
2023/09/26 03:09:38;;;;;;;0.10;0.10;;;;;;;10.52;100.00;99687.41;5116962;28;20185;-57
2023/09/26 03:12:26;;;;;;;0.10;0.10;;;;;;;10.49;100.00;99703.44;5133889;27;20251;-57
2023/09/26 03:15:12;;;;;;;0.10;0.10;;;;;;;10.44;100.00;99695.75;5118429;28;20243;-57
2023/09/26 03:17:59;;;;;;;0.10;0.10;;;;;;;10.60;100.00;99698.41;5133736;27;20190;-57
2023/09/26 03:20:46;;;;;;;0.10;0.10;;;;;;;10.84;100.00;99704.13;5118128;28;20292;-56
2023/09/26 03:23:34;;;;;;;0.10;0.10;;;;;;;10.77;100.00;99692.16;5132212;27;20303;-56
2023/09/26 03:26:21;;;;;;;0.10;0.10;;;;;;;-144.59;100.00;-17679.84;5133689;27;20364;-57
2023/09/26 03:29:08;;;;;;;0.10;0.10;;;;;;;10.98;100.00;99679.50;5133573;27;20303;-57
2023/09/26 03:31:55;;;;;;;0.10;0.10;;;;;;;10.67;100.00;99678.56;5118080;27;20200;-57
2023/09/26 03:34:42;;;;;;;0.10;0.10;;;;;;;10.76;100.00;99686.00;5133617;27;20198;-56
2023/09/26 03:37:29;;;;;;;0.10;0.10;;;;;;;10.97;100.00;99689.25;5133589;28;20194;-57
2023/09/26 03:40:17;;;;;;;0.10;0.10;;;;;;;11.00;100.00;99691.72;5116827;28;20189;-56
2023/09/26 03:43:04;;;;;;;0.10;0.10;;;;;;;10.81;100.00;99688.41;5133301;27;20209;-57
2023/09/26 03:45:51;;;;;;;0.10;0.10;;;;;;;10.73;100.00;99677.38;5133519;27;20205;-57
2023/09/26 03:48:38;;;;;;;0.10;0.10;;;;;;;10.47;100.00;99687.63;5133490;27;20196;-57
2023/09/26 03:51:25;;;;;;;0.10;0.10;;;;;;;10.60;100.00;99679.84;5133597;27;20201;-57
2023/09/26 03:54:12;;;;;;;0.10;0.10;;;;;;;10.41;100.00;99690.59;5132066;28;20201;-57
2023/09/26 03:57:01;;;;;;;0.10;0.10;;;;;;;10.43;100.00;99688.75;5133267;28;20247;-57
2023/09/26 03:59:49;;;;;;;0.10;0.10;;;;;;;10.31;100.00;99687.59;5133382;27;20193;-56
2023/09/26 04:02:36;;;;;;;0.10;0.10;;;;;;;10.31;100.00;99686.75;5133246;27;20727;-57
2023/09/26 04:05:23;;;;;;;0.10;0.10;;;;;;;10.54;100.00;99689.00;5133304;28;20197;-56
2023/09/26 04:08:09;;;;;;;0.10;0.10;;;;;;;10.87;100.00;99675.66;5133338;27;20197;-57
2023/09/26 04:10:56;;;;;;;0.10;0.10;;;;;;;10.86;100.00;99684.56;5133354;27;20186;-57
2023/09/26 04:13:45;;;;;;;0.10;0.10;;;;;;;10.61;100.00;99681.56;5133304;28;20197;-57
2023/09/26 04:16:32;;;;;;;0.10;0.10;;;;;;;10.61;100.00;99681.56;5133371;27;20279;-57
2023/09/26 04:19:19;;;;;;;0.10;0.10;;;;;;;10.39;100.00;99684.53;5135422;27;20200;-56
2023/09/26 04:22:06;;;;;;;0.10;0.10;;;;;;;10.34;100.00;99675.16;5136684;27;20217;-57
2023/09/26 04:24:54;;;;;;;0.10;0.10;;;;;;;10.23;100.00;99673.06;5135216;27;20765;-57
2023/09/26 04:27:41;;;;;;;0.10;0.10;;;;;;;10.69;100.00;99667.88;5136890;27;20228;-56
2023/09/26 04:30:29;;;;;;;0.10;0.10;;;;;;;10.69;100.00;129953.69;5136808;27;20212;-56
2023/09/26 04:33:17;;;;;;;0.10;0.10;;;;;;;10.50;100.00;99660.13;5136715;27;20235;-57
2023/09/26 04:36:04;;;;;;;0.10;0.10;;;;;;;10.43;100.00;99664.06;5136712;27;20231;-57
2023/09/26 04:38:50;;;;;;;0.10;0.10;;;;;;;10.21;100.00;99673.13;5135365;27;20320;-57
2023/09/26 04:41:38;;;;;;;0.10;0.10;;;;;;;10.15;100.00;99673.47;5136557;27;20204;-57
2023/09/26 04:44:24;;;;;;;0.10;0.10;;;;;;;9.94;100.00;99670.19;5136766;27;20189;-57
2023/09/26 04:47:13;;;;;;;0.10;0.10;;;;;;;9.84;100.00;99676.03;5136522;27;20193;-57
2023/09/26 04:50:00;;;;;;;0.10;0.10;;;;;;;9.72;100.00;99678.38;5136579;27;20197;-57
2023/09/26 04:52:47;;;;;;;0.10;0.10;;;;;;;9.70;100.00;99680.25;5136455;27;20198;-57
2023/09/26 04:55:36;;;;;;;0.10;0.10;;;;;;;9.84;100.00;99684.81;5134979;27;20231;-57
2023/09/26 04:58:23;;;;;;;0.10;0.10;;;;;;;10.24;100.00;99686.25;5136351;27;20197;-57
2023/09/26 05:01:14;;;;;;;0.10;0.10;;;;;;;10.26;100.00;99681.72;5136090;27;20189;-57
2023/09/26 05:04:02;;;;;;;0.10;0.10;;;;;;;10.31;100.00;99682.31;5135869;27;20194;-57
2023/09/26 05:06:50;;;;;;;0.10;0.10;;;;;;;10.36;100.00;99682.06;5136046;27;20262;-57
2023/09/26 05:09:38;;;;;;;0.10;0.10;;;;;;;10.19;100.00;99684.75;5134733;27;20208;-57
2023/09/26 05:12:25;;;;;;;0.10;0.10;;;;;;;10.14;100.00;99684.16;5135833;27;20189;-57
2023/09/26 05:15:13;;;;;;;0.10;0.10;;;;;;;10.25;100.00;99689.75;5135908;27;20197;-57
2023/09/26 05:18:00;;;;;;;0.10;0.10;;;;;;;10.36;100.00;99684.72;5135875;27;20197;-57
2023/09/26 05:20:48;;;;;;;0.10;0.10;;;;;;;10.40;100.00;99674.81;5135746;27;20338;-57
2023/09/26 05:23:35;;;;;;;0.10;0.10;;;;;;;10.24;100.00;99680.09;5118512;27;20719;-57
2023/09/26 05:26:22;;;;;;;0.10;0.10;;;;;;;10.24;100.00;99680.97;5135878;27;20189;-57
2023/09/26 05:29:09;;;;;;;0.10;0.10;;;;;;;10.59;100.00;99686.09;5135384;27;20324;-57
2023/09/26 05:31:56;;;;;;;0.10;0.10;;;;;;;10.03;100.00;99682.91;5135614;27;20643;-57
2023/09/26 05:34:43;;;;;;;0.10;0.10;;;;;;;10.62;100.00;99685.09;5135406;27;20193;-57
2023/09/26 05:37:31;;;;;;;0.10;0.10;;;;;;;10.47;100.00;99682.34;5135272;27;20671;-56
2023/09/26 05:40:18;;;;;;;0.10;0.10;;;;;;;10.31;100.00;99684.09;5133258;27;20197;-57
2023/09/26 05:43:05;;;;;;;0.10;0.10;;;;;;;10.20;100.00;99681.16;5135229;27;20328;-57
2023/09/26 05:45:52;;;;;;;0.10;0.10;;;;;;;10.16;100.00;99684.91;5135105;27;20270;-57
2023/09/26 05:48:40;;;;;;;0.10;0.10;;;;;;;10.11;100.00;99690.44;5135250;27;20194;-57
2023/09/26 05:51:27;;;;;;;0.10;0.10;;;;;;;10.16;100.00;99680.47;5119399;27;20194;-57
2023/09/26 05:54:15;;;;;;;0.10;0.10;;;;;;;10.21;100.00;99689.00;5133679;27;20667;-57
2023/09/26 05:57:17;;;;;;;0.10;0.10;;;;;;;10.18;100.00;99683.88;5135308;27;20184;-57
2023/09/26 06:00:11;;;;;;;0.10;0.10;;;;;;;10.11;100.00;99690.44;5135084;27;20315;-57
2023/09/26 06:02:58;;;;;;;0.10;0.10;;;;;;;10.39;100.00;99689.00;5134915;27;20273;-57
2023/09/26 06:05:46;;;;;;;0.10;0.10;;;;;;;10.32;100.00;99694.59;5135108;27;20193;-57
2023/09/26 06:08:34;;;;;;;0.10;0.10;;;;;;;10.77;100.00;99690.38;5118066;27;20194;-57
2023/09/26 06:11:22;;;;;;;0.10;0.10;;;;;;;10.60;100.00;99693.09;5134824;27;20188;-57
2023/09/26 06:14:09;;;;;;;0.10;0.10;;;;;;;10.49;100.00;99695.50;5134206;27;20190;-57
2023/09/26 06:16:56;;;;;;;0.10;0.10;;;;;;;10.55;100.00;99698.66;5133804;27;20209;-57
2023/09/26 06:19:46;;;;;;;0.10;0.10;;;;;;;10.90;100.00;99695.81;5134260;27;20202;-57
2023/09/26 06:22:33;;;;;;;0.10;0.10;;;;;;;11.08;100.00;99701.88;5134590;27;20213;-57
2023/09/26 06:25:22;;;;;;;0.10;0.10;;;;;;;10.57;100.00;99690.63;5112104;28;20214;-56
2023/09/26 06:28:11;;;;;;;0.10;0.10;;;;;;;10.77;100.00;99700.13;5113540;28;20198;-56
2023/09/26 06:31:04;;;;;;;0.10;0.10;;;;;;;10.89;100.00;99699.41;5113433;28;20672;-57
2023/09/26 06:33:51;;;;;;;0.10;0.10;;;;;;;10.99;100.00;99699.75;5113397;28;20190;-57
2023/09/26 06:36:38;;;;;;;0.10;0.10;;;;;;;11.02;100.00;99702.25;5113233;28;20213;-56
2023/09/26 06:39:25;;;;;;;0.10;0.10;;;;;;;11.17;100.00;99696.03;5112309;28;20214;-57
2023/09/26 06:42:12;;;;;;;0.10;0.10;;;;;;;11.18;100.00;99692.44;5112731;28;20214;-57
2023/09/26 06:45:01;;;;;;;0.10;0.10;;;;;;;11.29;100.00;99698.00;5113532;28;20194;-57
2023/09/26 06:47:47;;;;;;;0.10;0.10;;;;;;;11.37;100.00;99700.19;5112869;28;20716;-57
2023/09/26 06:50:34;;;;;;;0.10;0.10;;;;;;;11.83;100.00;99710.75;5113360;28;20193;-57
2023/09/26 06:53:22;;;;;;;0.10;0.10;;;;;;;11.90;100.00;99702.34;5112532;28;20194;-57
2023/09/26 06:56:09;;;;;;;0.10;0.10;;;;;;;12.25;100.00;99697.50;5113415;28;20206;-57
2023/09/26 06:58:56;;;;;;;0.10;0.10;;;;;;;12.07;100.00;99706.63;5113314;28;20267;-57
2023/09/26 07:01:45;;;;;;;0.10;0.10;;;;;;;12.17;100.00;99698.94;5112216;28;20190;-56
2023/09/26 07:04:32;;;;;;;0.10;0.10;;;;;;;12.33;100.00;99697.03;5113049;28;20302;-56
2023/09/26 07:07:19;;;;;;;0.10;0.10;;;;;;;12.57;100.00;99697.31;5113136;28;20194;-56
2023/09/26 07:10:10;;;;;;;0.10;0.10;;;;;;;12.61;100.00;99698.81;5111614;28;20211;-56
2023/09/26 07:12:57;;;;;;;0.10;0.10;;;;;;;12.80;100.00;99695.81;5113321;28;20190;-57
2023/09/26 07:15:44;;;;;;;0.10;0.10;;;;;;;12.80;100.00;99695.81;5112719;28;20272;-57
2023/09/26 07:18:34;;;;;;;0.10;0.10;;;;;;;13.41;100.00;99690.03;5112984;28;20293;-56
2023/09/26 07:21:20;;;;;;;0.10;0.10;;;;;;;13.36;100.00;99677.97;5112409;28;20202;-57
2023/09/26 07:24:08;;;;;;;0.10;0.10;;;;;;;13.56;100.00;99685.47;5124442;28;20229;-57
2023/09/26 07:26:55;;;;;;;0.10;0.10;;;;;;;13.86;100.00;99685.16;5133550;27;20247;-57
2023/09/26 07:29:45;;;;;;;0.10;0.10;;;;;;;13.79;100.00;99683.03;5133009;27;20201;-57
2023/09/26 07:32:32;;;;;;;0.10;0.10;;;;;;;14.10;100.00;99681.78;5133705;27;20190;-57
2023/09/26 07:35:20;;;;;;;0.10;0.10;;;;;;;14.21;100.00;99679.22;5133660;27;20438;-57
2023/09/26 07:38:07;;;;;;;0.10;0.10;;;;;;;14.39;100.00;99683.22;5133016;27;20245;-57
2023/09/26 07:40:54;;;;;;;0.10;0.10;;;;;;;14.46;100.00;99665.00;5133076;27;20197;-57
2023/09/26 07:43:41;;;;;;;0.10;0.10;;;;;;;14.55;100.00;99669.66;5133353;27;20216;-57
2023/09/26 07:46:27;;;;;;;0.10;0.10;;;;;;;14.81;100.00;99668.63;5133217;27;20255;-57
2023/09/26 07:49:15;;;;;;;0.10;0.10;;;;;;;14.94;100.00;99662.38;5132897;27;20533;-57
2023/09/26 07:52:03;;;;;;;0.10;0.10;;;;;;;15.13;100.00;99670.72;5133614;27;20198;-57
2023/09/26 07:54:50;;;;;;;0.10;0.10;;;;;;;15.28;100.00;99671.41;5135326;27;20228;-57
2023/09/26 07:57:37;;;;;;;0.10;0.10;;;;;;;15.70;100.00;99665.50;5137435;27;20189;-57
2023/09/26 08:00:24;;;;;;;0.10;0.10;;;;;;;15.40;100.00;99663.31;5137422;27;20268;-57
2023/09/26 08:03:13;;;;;;;0.10;0.10;;;;;;;15.84;100.00;99667.13;5137098;27;20208;-57
2023/09/26 08:06:00;;;;;;;0.10;0.10;;;;;;;16.13;100.00;99666.66;5137294;27;20193;-57
2023/09/26 08:08:50;;;;;;;0.10;0.10;;;;;;;16.03;100.00;99661.19;5135936;27;20193;-57
2023/09/26 08:11:38;;;;;;;0.10;0.10;;;;;;;16.03;100.00;99661.19;5137151;27;20259;-57
2023/09/26 08:14:25;;;;;;;0.10;0.10;;;;;;;16.29;100.00;99664.47;5137200;27;20256;-56
2023/09/26 08:17:12;;;;;;;0.10;0.10;;;;;;;16.44;100.00;99659.72;5136948;27;20365;-57
2023/09/26 08:19:59;;;;;;;0.10;0.10;;;;;;;16.90;100.00;99659.56;5136842;27;20215;-57
2023/09/26 08:22:46;;;;;;;0.10;0.10;;;;;;;17.11;100.00;99654.25;5136698;27;20211;-57
2023/09/26 08:25:36;;;;;;;0.10;0.10;;;;;;;17.16;100.00;99654.69;5135425;27;20185;-57
2023/09/26 08:28:25;;;;;;;0.10;0.10;;;;;;;16.96;100.00;99642.13;5136588;27;20208;-57
2023/09/26 08:31:15;;;;;;;0.10;0.10;;;;;;;17.23;100.00;99641.66;5136752;27;20191;-57
2023/09/26 08:34:02;;;;;;;0.00;0.00;;;;;;;17.73;100.00;99648.13;5136595;27;20194;-57
2023/09/26 08:36:49;;;;;;;0.10;0.10;;;;;;;17.97;100.00;99647.84;5136364;27;20204;-57
2023/09/26 08:39:36;;;;;;;0.10;0.10;;;;;;;17.91;100.00;99640.31;5134961;27;20197;-57
2023/09/26 08:42:28;;;;;;;0.10;0.10;;;;;;;18.26;100.00;99643.47;5136494;27;20201;-57
2023/09/26 08:45:15;;;;;;;0.10;0.10;;;;;;;18.62;100.00;99638.47;5134553;27;20214;-57
2023/09/26 08:48:03;;;;;;;0.10;0.10;;;;;;;18.75;100.00;99635.59;5135098;27;20204;-57
2023/09/26 08:50:50;;;;;;;0.10;0.10;;;;;;;18.82;100.00;99634.91;5136316;27;20201;-57
2023/09/26 08:53:37;;;;;;;0.00;0.00;;;;;;;18.88;100.00;99641.53;5134965;27;20412;-57
2023/09/26 08:56:24;;;;;;;0.10;0.10;;;;;;;19.53;100.00;99631.09;5120796;27;20193;-57
2023/09/26 08:59:14;;;;;;;0.10;0.10;;;;;;;19.29;100.00;99621.63;5136292;27;20403;-57
2023/09/26 09:02:02;;;;;;;0.10;0.10;;;;;;;19.90;100.00;99629.34;5136226;27;20213;-57
2023/09/26 09:04:48;;;;;;;0.10;0.10;;;;;;;20.24;100.00;99613.47;5135295;27;20252;-57
2023/09/26 09:07:39;;;;;;;0.10;0.10;;;;;;;20.18;100.00;99624.00;5135672;27;20196;-57
2023/09/26 09:10:26;;;;;;;0.10;0.10;;;;;;;20.79;100.00;99618.88;5134553;27;20193;-57
2023/09/26 09:13:13;;;;;;;0.10;0.10;;;;;;;21.49;100.00;99624.44;5136027;27;20352;-57
2023/09/26 09:16:13;;;;;;;0.10;0.10;;;;;;;21.60;100.00;99623.31;5135974;27;20737;-57
2023/09/26 09:19:00;;;;;;;0.10;0.10;;;;;;;21.92;100.00;99612.78;5135091;27;20193;-57
2023/09/26 09:21:47;;;;;;;0.10;0.10;;;;;;;22.11;100.00;99611.72;5135624;27;20193;-57
2023/09/26 09:24:37;;;;;;;0.10;0.10;;;;;;;22.11;100.00;99611.72;5133253;27;20237;-57
2023/09/26 09:27:36;;;;;;;0.10;0.10;;;;;;;22.22;100.00;99616.00;5127066;27;20193;-58
2023/09/26 09:30:23;;;;;;;0.10;0.10;;;;;;;22.38;100.00;99618.75;5135596;27;20221;-57
2023/09/26 09:33:14;;;;;;;0.10;0.10;;;;;;;22.82;96.99;99608.59;5119805;27;20197;-58
2023/09/26 09:36:01;;;;;;;0.10;0.10;;;;;;;22.74;95.21;99605.03;5135486;27;20177;-57
2023/09/26 09:38:47;;;;;;;0.10;0.10;;;;;;;23.15;89.90;99603.28;5134143;27;20199;-58
2023/09/26 09:41:37;;;;;;;0.10;0.10;;;;;;;23.34;87.12;99604.81;5135132;27;20193;-58
2023/09/26 09:44:24;;;;;;;0.10;0.10;;;;;;;24.08;81.52;99600.16;5135168;27;20225;-57
2023/09/26 09:47:17;;;;;;;0.10;0.10;;;;;;;23.67;81.29;99603.81;5135343;27;20209;-57
2023/09/26 09:50:07;;;;;;;0.10;0.10;;;;;;;24.33;78.15;99598.25;5135076;27;20201;-57
2023/09/26 09:52:56;;;;;;;0.10;0.10;;;;;;;25.04;74.92;99603.47;5135178;27;20185;-57
2023/09/26 09:55:47;;;;;;;0.10;0.10;;;;;;;26.20;68.77;99599.50;5135018;27;20181;-58
2023/09/26 09:58:38;;;;;;;0.10;0.10;;;;;;;27.87;56.04;99598.38;5134984;27;20189;-58
2023/09/26 10:01:26;;;;;;;0.10;0.10;;;;;;;28.99;50.34;99590.78;5134989;27;20201;-58
2023/09/26 10:04:15;;;;;;;0.10;0.10;;;;;;;29.76;48.04;99600.31;5134615;27;20193;-58
2023/09/26 10:07:04;;;;;;;0.00;0.00;;;;;;;30.25;44.96;99598.16;5134958;27;20193;-58
2023/09/26 10:09:53;;;;;;;0.00;0.00;;;;;;;33.50;38.24;99588.63;5133997;27;20263;-58
2023/09/26 10:12:42;;;;;;;0.00;0.00;;;;;;;31.88;40.85;99591.09;5134708;27;20215;-58
2023/09/26 10:16:19;;;;;;;0.00;0.00;;;;;;;31.88;39.54;99591.09;5133973;27;20579;-58
2023/09/26 10:19:06;;;;;;;0.10;0.10;;;;;;;31.46;41.17;99581.72;5030788;28;20205;-58
2023/09/26 10:21:53;;;;;;;0.00;0.00;;;;;;;32.50;39.25;99588.31;5134713;27;20201;-58
2023/09/26 10:24:47;;;;;;;0.00;0.00;;;;;;;31.10;40.71;99586.00;5132867;27;20217;-58
2023/09/26 10:27:41;;;;;;;0.10;0.10;;;;;;;30.08;42.65;99587.69;5134220;27;20583;-58
2023/09/26 10:30:45;;;;;;;0.00;0.00;;;;;;;30.92;42.86;99580.41;5133574;27;20322;-58
2023/09/26 10:33:36;;;;;;;0.00;0.00;;;;;;;31.77;39.72;99578.13;5134185;27;20212;-58
2023/09/26 10:36:44;;;;;;;0.00;0.00;;;;;;;32.10;39.41;99575.88;5134236;27;20208;-58
2023/09/26 10:39:35;;;;;;;0.00;0.00;;;;;;;33.79;37.67;99565.69;5133080;27;20197;-58
2023/09/26 10:42:25;;;;;;;0.03;0.03;;;;;;;34.33;35.86;99562.75;5134360;27;20193;-58
2023/09/26 10:45:32;;;;;;;0.00;0.00;;;;;;;34.39;35.13;99561.81;5134166;27;20698;-56
2023/09/26 10:48:19;;;;;;;0.00;0.00;;;;;;;34.81;34.77;99556.03;5134181;27;20193;-56
2023/09/26 10:51:07;;;;;;;0.00;0.00;;;;;;;36.04;32.98;99557.88;5134001;27;20189;-56
2023/09/26 10:53:54;;;;;;;0.00;0.00;;;;;;;35.28;33.16;99560.22;5132928;27;20215;-56
2023/09/26 10:56:47;;;;;;;0.00;0.00;;;;;;;34.20;33.91;99557.53;5133924;27;20292;-56
2023/09/26 10:59:36;;;;;;;0.00;0.00;;;;;;;35.60;33.28;99553.31;5134097;27;20182;-56
2023/09/26 11:02:23;;;;;;;0.00;0.00;;;;;;;36.93;31.71;99549.31;5133840;27;20205;-56
2023/09/26 11:05:12;;;;;;;0.00;0.00;;;;;;;35.21;33.03;99556.78;5133517;27;20331;-56
2023/09/26 11:07:59;;;;;;;0.00;0.00;;;;;;;34.82;33.73;99543.94;5133869;27;20189;-56
2023/09/26 11:10:47;;;;;;;0.00;0.00;;;;;;;34.58;33.82;99551.47;5132897;27;20303;-56
2023/09/26 11:13:34;;;;;;;0.00;0.00;;;;;;;34.96;34.55;99548.94;5134001;27;20188;-55
2023/09/26 11:16:22;;;;;;;0.00;0.00;;;;;;;38.10;30.15;99549.41;5132415;27;20185;-56
2023/09/26 11:19:10;;;;;;;0.00;0.00;;;;;;;36.89;30.98;99548.19;5133465;27;20239;-56
2023/09/26 11:21:57;;;;;;;0.00;0.00;;;;;;;37.62;30.98;99543.00;5133812;27;20201;-56
2023/09/26 11:24:44;;;;;;;0.00;0.00;;;;;;;35.55;33.48;99545.81;5131988;27;20237;-56
2023/09/26 11:27:31;;;;;;;0.00;0.00;;;;;;;36.33;31.36;99536.44;5134694;27;20234;-56
2023/09/26 11:30:20;;;;;;;0.00;0.00;;;;;;;35.55;32.13;99541.13;5137705;27;20447;-56
2023/09/26 11:33:09;;;;;;;0.00;0.00;;;;;;;37.03;31.24;99542.22;5138257;27;20201;-56
2023/09/26 11:35:56;;;;;;;0.00;0.00;;;;;;;35.37;32.26;99532.25;5137994;27;20279;-56
2023/09/26 11:38:47;;;;;;;0.00;0.00;;;;;;;34.90;33.56;99535.31;5136685;27;20304;-56
2023/09/26 11:41:34;;;;;;;0.00;0.00;;;;;;;36.64;31.31;99532.13;5137784;27;20203;-56
2023/09/26 11:44:35;;;;;;;0.00;0.00;;;;;;;38.93;29.10;99527.31;5137535;27;20232;-56
2023/09/26 11:47:23;;;;;;;0.00;0.00;;;;;;;39.00;28.87;99525.09;5137521;27;20240;-57
2023/09/26 11:50:12;;;;;;;0.00;0.00;;;;;;;38.67;29.40;99529.19;5137620;27;20204;-56
2023/09/26 11:53:00;;;;;;;0.00;0.00;;;;;;;38.93;28.70;99522.59;5135879;27;20232;-56
2023/09/26 11:55:51;;;;;;;0.00;0.00;;;;;;;36.80;30.13;99518.50;5137015;27;20198;-57
2023/09/26 11:58:38;;;;;;;0.00;0.00;;;;;;;34.93;32.93;99527.38;5137433;27;20201;-56
2023/09/26 12:01:26;;;;;;;0.00;0.00;;;;;;;35.72;31.94;99524.56;5136872;27;20319;-56
2023/09/26 12:04:14;;;;;;;0.00;0.00;;;;;;;35.38;32.28;99518.25;5137265;27;20221;-56
2023/09/26 12:07:03;;;;;;;0.00;0.00;;;;;;;37.00;30.50;99512.38;5136886;27;20217;-56
2023/09/26 12:09:50;;;;;;;0.00;0.00;;;;;;;38.61;29.21;99511.72;5135722;27;20217;-56
2023/09/26 12:12:37;;;;;;;0.00;0.00;;;;;;;37.74;30.25;99509.66;5137051;27;20259;-56
2023/09/26 12:15:27;;;;;;;0.00;0.00;;;;;;;37.00;30.70;99510.44;5137042;27;20194;-56
2023/09/26 12:18:14;;;;;;;0.00;0.00;;;;;;;37.57;29.98;99507.03;5137128;27;20217;-56
2023/09/26 12:21:01;;;;;;;0.00;0.00;;;;;;;38.69;28.34;99509.53;5136985;27;20330;-56
2023/09/26 12:23:49;;;;;;;0.00;0.00;;;;;;;38.99;28.50;99494.88;5135337;27;20239;-56
2023/09/26 12:26:38;;;;;;;0.00;0.00;;;;;;;41.64;26.13;99495.34;5136568;27;20216;-56
2023/09/26 12:29:25;;;;;;;0.00;0.00;;;;;;;39.20;27.82;99497.41;5136867;27;20193;-57
2023/09/26 12:32:12;;;;;;;0.00;0.00;;;;;;;37.56;29.93;99488.78;5136658;27;20193;-56
2023/09/26 12:34:59;;;;;;;0.00;0.00;;;;;;;37.95;29.46;99485.72;5136579;27;20194;-56
2023/09/26 12:37:46;;;;;;;0.00;0.00;;;;;;;38.89;29.01;99479.91;5136696;27;20282;-56
2023/09/26 12:40:35;;;;;;;0.00;0.00;;;;;;;39.25;28.34;99474.38;5134894;27;20193;-56
2023/09/26 12:43:21;;;;;;;0.00;0.00;;;;;;;39.38;27.81;99476.63;5136543;27;20259;-56
2023/09/26 12:46:08;;;;;;;0.00;0.00;;;;;;;37.77;29.46;99476.75;5136402;27;20261;-56
2023/09/26 12:48:55;;;;;;;0.00;0.00;;;;;;;39.22;28.35;99466.66;5136505;27;20231;-56
2023/09/26 12:51:42;;;;;;;0.00;0.00;;;;;;;40.33;27.10;99467.44;5136572;27;20193;-56
2023/09/26 12:54:29;;;;;;;0.00;0.00;;;;;;;38.64;28.92;99466.00;5135159;27;20315;-56
2023/09/26 12:57:17;;;;;;;0.00;0.00;;;;;;;40.12;27.27;99458.38;5136040;27;20204;-56
2023/09/26 13:00:09;;;;;;;0.00;0.00;;;;;;;39.67;27.53;99460.22;5136006;27;20197;-56
2023/09/26 13:02:56;;;;;;;0.00;0.00;;;;;;;38.53;28.87;99453.25;5136222;27;20261;-56
2023/09/26 13:05:43;;;;;;;0.00;0.00;;;;;;;38.80;28.89;99453.03;5136057;27;20197;-56